createdAt,value
2018-03-06T00:00:21.012Z,15.83
2018-03-06T00:02:48.648Z,21.30
2018-03-06T00:05:16.599Z,13.03
2018-03-06T00:07:44.206Z,13.70
2018-03-06T00:10:11.822Z,12.37
2018-03-06T00:12:39.414Z,12.07
2018-03-06T00:15:07.339Z,13.30
2018-03-06T00:17:35.053Z,11.73
2018-03-06T00:20:02.653Z,15.40
2018-03-06T00:22:30.376Z,15.10
2018-03-06T00:24:57.965Z,9.83
2018-03-06T00:27:25.566Z,15.07
2018-03-06T00:29:53.177Z,17.97
2018-03-06T00:32:20.787Z,13.47
2018-03-06T00:34:48.487Z,11.93
2018-03-06T00:37:16.075Z,15.63
2018-03-06T00:39:43.663Z,15.90
2018-03-06T00:42:11.307Z,14.63
2018-03-06T00:44:39.126Z,15.67
2018-03-06T00:47:06.841Z,15.10
2018-03-06T00:49:34.490Z,16.70
2018-03-06T00:52:02.150Z,14.40
2018-03-06T00:54:29.741Z,10.73
2018-03-06T00:56:57.325Z,13.87
2018-03-06T00:59:24.987Z,20.53
2018-03-06T01:01:52.623Z,12.80
2018-03-06T01:04:20.208Z,12.70
2018-03-06T01:06:47.876Z,11.70
2018-03-06T01:09:15.519Z,12.03
2018-03-06T01:11:43.123Z,13.90
2018-03-06T01:14:10.753Z,19.20
2018-03-06T01:16:38.366Z,12.60
2018-03-06T01:19:06.005Z,13.80
2018-03-06T01:21:33.783Z,16.80
2018-03-06T01:24:01.791Z,14.47
2018-03-06T01:26:29.372Z,18.43
2018-03-06T01:28:56.990Z,14.80
2018-03-06T01:31:24.630Z,15.83
2018-03-06T01:33:52.228Z,14.17
2018-03-06T01:36:19.870Z,10.80
2018-03-06T01:38:47.457Z,14.43
2018-03-06T01:41:15.039Z,12.37
2018-03-06T01:43:42.663Z,12.37
2018-03-06T01:46:10.260Z,12.07
2018-03-06T01:48:38.739Z,17.43
2018-03-06T01:51:07.087Z,13.40
2018-03-06T01:53:35.187Z,15.37
2018-03-06T01:56:03.390Z,16.97
2018-03-06T01:58:31.324Z,11.53
2018-03-06T02:00:59.334Z,13.33
2018-03-06T02:03:27.393Z,16.67
2018-03-06T02:05:55.429Z,13.97
2018-03-06T02:08:23.544Z,13.40
2018-03-06T02:10:51.160Z,15.00
2018-03-06T02:13:18.827Z,16.20
2018-03-06T02:15:46.507Z,13.53
2018-03-06T02:18:14.134Z,16.60
2018-03-06T02:20:41.786Z,14.17
2018-03-06T02:23:09.423Z,12.90
2018-03-06T02:25:37.125Z,16.00
2018-03-06T02:28:04.771Z,19.67
2018-03-06T02:30:32.568Z,14.87
2018-03-06T02:33:01.059Z,14.68
2018-03-06T02:35:28.704Z,16.97
2018-03-06T02:37:56.332Z,15.83
2018-03-06T02:40:23.910Z,15.90
2018-03-06T02:42:51.528Z,16.80
2018-03-06T02:45:19.221Z,15.98
2018-03-06T02:47:46.861Z,14.60
2018-03-06T02:50:14.450Z,15.80
2018-03-06T02:52:42.141Z,13.75
2018-03-06T02:55:09.981Z,16.00
2018-03-06T02:57:37.574Z,14.47
2018-03-06T03:00:05.300Z,16.80
2018-03-06T03:02:33.012Z,19.08
2018-03-06T03:05:00.625Z,16.53
2018-03-06T03:07:28.627Z,17.27
2018-03-06T03:09:56.295Z,15.90
2018-03-06T03:12:24.052Z,18.60
2018-03-06T03:14:52.129Z,17.37
2018-03-06T03:17:19.840Z,15.50
2018-03-06T03:19:47.464Z,15.75
2018-03-06T03:22:15.123Z,17.35
2018-03-06T03:24:42.787Z,17.40
2018-03-06T03:27:10.484Z,33.83
2018-03-06T03:29:38.077Z,19.70
2018-03-06T03:32:05.702Z,20.20
2018-03-06T03:34:33.348Z,16.70
2018-03-06T03:37:01.002Z,15.02
2018-03-06T03:39:28.693Z,20.70
2018-03-06T03:41:56.334Z,19.83
2018-03-06T03:44:24.043Z,18.53
2018-03-06T03:46:51.668Z,19.48
2018-03-06T03:49:19.805Z,14.27
2018-03-06T03:51:47.453Z,24.83
2018-03-06T03:54:15.076Z,16.30
2018-03-06T03:56:42.770Z,17.83
2018-03-06T03:59:10.429Z,20.40
2018-03-06T04:01:38.089Z,17.37
2018-03-06T04:04:05.694Z,21.45
2018-03-06T04:06:33.561Z,19.70
2018-03-06T04:09:01.227Z,16.10
2018-03-06T04:11:28.840Z,20.02
2018-03-06T04:13:56.474Z,17.15
2018-03-06T04:16:24.148Z,19.55
2018-03-06T04:18:51.852Z,14.00
2018-03-06T04:21:19.480Z,21.77
2018-03-06T04:23:47.158Z,19.02
2018-03-06T04:26:14.819Z,16.17
2018-03-06T04:28:42.435Z,20.10
2018-03-06T04:31:10.050Z,21.92
2018-03-06T04:33:37.693Z,21.50
2018-03-06T04:36:05.352Z,34.63
2018-03-06T04:38:33.026Z,23.67
2018-03-06T04:41:00.663Z,21.65
2018-03-06T04:43:28.309Z,22.83
2018-03-06T04:45:56.050Z,20.02
2018-03-06T04:48:23.675Z,17.90
2018-03-06T04:50:51.298Z,17.73
2018-03-06T04:53:18.915Z,20.73
2018-03-06T04:55:46.514Z,23.95
2018-03-06T04:58:14.169Z,19.27
2018-03-06T05:00:41.857Z,17.85
2018-03-06T05:03:09.479Z,18.58
2018-03-06T05:05:37.733Z,20.85
2018-03-06T05:08:05.374Z,19.90
2018-03-06T05:10:32.968Z,17.42
2018-03-06T05:13:00.610Z,29.30
2018-03-06T05:15:28.248Z,25.67
2018-03-06T05:17:55.856Z,24.70
2018-03-06T05:20:24.406Z,22.40
2018-03-06T05:22:53.528Z,21.05
2018-03-06T05:25:21.197Z,19.27
2018-03-06T05:27:48.879Z,22.00
2018-03-06T05:30:16.470Z,20.23
2018-03-06T05:32:44.139Z,20.48
2018-03-06T05:35:11.828Z,23.38
2018-03-06T05:37:39.477Z,19.02
2018-03-06T05:40:07.097Z,19.80
2018-03-06T05:42:34.758Z,22.30
2018-03-06T05:45:02.725Z,23.80
2018-03-06T05:47:30.336Z,21.98
2018-03-06T05:49:57.984Z,18.98
2018-03-06T05:52:25.683Z,20.50
2018-03-06T05:54:53.277Z,26.33
2018-03-06T05:57:20.873Z,20.85
2018-03-06T05:59:48.571Z,22.00
2018-03-06T06:02:16.213Z,23.48
2018-03-06T06:04:43.859Z,24.65
2018-03-06T06:07:11.537Z,23.23
2018-03-06T06:09:39.153Z,19.55
2018-03-06T06:12:06.872Z,24.08
2018-03-06T06:14:34.557Z,21.25
2018-03-06T06:17:02.165Z,18.02
2018-03-06T06:19:29.789Z,23.77
2018-03-06T06:21:57.449Z,20.33
2018-03-06T06:24:25.125Z,19.33
2018-03-06T06:26:52.650Z,29.55
2018-03-06T06:29:20.320Z,19.40
2018-03-06T06:31:47.930Z,18.85
2018-03-06T06:34:16.056Z,24.35
2018-03-06T06:36:43.668Z,23.20
2018-03-06T06:39:11.261Z,18.95
2018-03-06T06:41:38.914Z,36.17
2018-03-06T06:44:06.475Z,22.53
2018-03-06T06:46:34.077Z,21.83
2018-03-06T06:49:01.690Z,23.08
2018-03-06T06:51:29.296Z,27.33
2018-03-06T06:53:56.945Z,23.08
2018-03-06T06:56:24.526Z,24.60
2018-03-06T06:58:52.189Z,24.42
2018-03-06T07:01:19.827Z,26.73
2018-03-06T07:03:47.387Z,32.08
2018-03-06T07:06:15.260Z,25.48
2018-03-06T07:08:42.895Z,26.77
2018-03-06T07:11:10.531Z,28.23
2018-03-06T07:13:38.212Z,25.65
2018-03-06T07:16:05.837Z,22.45
2018-03-06T07:18:34.390Z,32.83
2018-03-06T07:21:01.974Z,25.00
2018-03-06T07:23:29.661Z,25.05
2018-03-06T07:25:57.252Z,22.23
2018-03-06T07:28:24.845Z,23.25
2018-03-06T07:30:52.558Z,28.00
2018-03-06T07:33:20.144Z,27.23
2018-03-06T07:35:47.740Z,26.95
2018-03-06T07:38:15.417Z,31.67
2018-03-06T07:40:43.005Z,22.93
2018-03-06T07:43:10.573Z,23.30
2018-03-06T07:45:38.203Z,23.73
2018-03-06T07:48:05.823Z,20.50
2018-03-06T07:50:33.536Z,28.07
2018-03-06T07:53:01.446Z,29.80
2018-03-06T07:55:29.027Z,28.10
2018-03-06T07:57:56.640Z,26.83
2018-03-06T08:00:24.374Z,27.77
2018-03-06T08:02:51.957Z,36.80
2018-03-06T08:05:19.768Z,20.73
2018-03-06T08:07:47.405Z,24.37
2018-03-06T08:10:15.215Z,23.53
2018-03-06T08:12:42.877Z,23.93
2018-03-06T08:15:10.493Z,24.00
2018-03-06T08:17:38.093Z,19.80
2018-03-06T08:20:05.735Z,24.63
2018-03-06T08:22:33.422Z,21.93
2018-03-06T08:25:01.012Z,27.80
2018-03-06T08:27:28.632Z,23.47
2018-03-06T08:29:56.227Z,22.23
2018-03-06T08:32:23.891Z,27.50
2018-03-06T08:34:51.471Z,25.57
2018-03-06T08:37:19.104Z,25.30
2018-03-06T08:39:46.785Z,23.00
2018-03-06T08:42:14.373Z,27.33
2018-03-06T08:44:41.958Z,29.57
2018-03-06T08:47:09.595Z,24.87
2018-03-06T08:49:37.246Z,24.67
2018-03-06T08:52:04.127Z,26.00
2018-03-06T08:54:31.730Z,24.90
2018-03-06T08:56:59.346Z,27.40
2018-03-06T08:59:26.919Z,26.00
2018-03-06T09:01:54.626Z,31.60
2018-03-06T09:04:22.200Z,35.40
2018-03-06T09:06:49.780Z,29.50
2018-03-06T09:09:17.420Z,26.87
2018-03-06T09:11:45.007Z,27.27
2018-03-06T09:14:12.606Z,30.10
2018-03-06T09:16:40.219Z,26.07
2018-03-06T09:19:08.205Z,26.13
2018-03-06T09:21:36.060Z,31.63
2018-03-06T09:24:03.613Z,32.07
2018-03-06T09:26:31.226Z,23.43
2018-03-06T09:28:58.898Z,24.67
2018-03-06T09:31:26.469Z,28.00
2018-03-06T09:33:54.109Z,28.23
2018-03-06T09:36:21.762Z,26.27
2018-03-06T09:38:49.343Z,28.30
2018-03-06T09:41:16.915Z,34.97
2018-03-06T09:43:44.545Z,32.00
2018-03-06T09:46:12.127Z,27.93
2018-03-06T09:48:39.778Z,26.83
2018-03-06T09:51:07.371Z,33.73
2018-03-06T09:53:34.953Z,27.97
2018-03-06T09:56:02.954Z,26.77
2018-03-06T09:58:30.549Z,25.83
2018-03-06T10:00:58.216Z,25.90
2018-03-06T10:03:25.789Z,26.57
2018-03-06T10:05:53.354Z,26.30
2018-03-06T10:08:20.944Z,27.63
2018-03-06T10:10:48.599Z,31.53
2018-03-06T10:13:16.205Z,32.37
2018-03-06T10:15:43.802Z,27.10
2018-03-06T10:18:11.419Z,32.80
2018-03-06T10:20:38.993Z,29.27
2018-03-06T10:23:06.582Z,27.13
2018-03-06T10:25:34.171Z,26.53
2018-03-06T10:28:01.826Z,28.70
2018-03-06T10:30:29.501Z,30.30
2018-03-06T10:32:57.091Z,27.70
2018-03-06T10:35:24.715Z,23.60
2018-03-06T10:37:52.364Z,32.63
2018-03-06T10:40:19.930Z,32.97
2018-03-06T10:42:47.514Z,30.50
2018-03-06T10:45:15.162Z,27.50
2018-03-06T10:47:42.823Z,32.30
2018-03-06T10:50:10.438Z,28.53
2018-03-06T10:52:38.034Z,29.97
2018-03-06T10:55:05.723Z,24.57
2018-03-06T10:57:33.269Z,34.80
2018-03-06T11:00:00.926Z,34.00
2018-03-06T11:02:32.381Z,24.37
2018-03-06T11:05:00.068Z,32.10
2018-03-06T11:07:27.662Z,28.37
2018-03-06T11:09:55.282Z,28.20
2018-03-06T11:12:23.118Z,23.53
2018-03-06T11:14:50.682Z,25.70
2018-03-06T11:17:18.286Z,29.50
2018-03-06T11:19:45.914Z,25.90
2018-03-06T11:22:13.718Z,31.97
2018-03-06T11:24:41.308Z,27.03
2018-03-06T11:27:08.918Z,31.53
2018-03-06T11:29:36.573Z,34.43
2018-03-06T11:32:04.142Z,27.03
2018-03-06T11:34:31.724Z,27.50
2018-03-06T11:36:59.344Z,33.53
2018-03-06T11:39:26.929Z,32.97
2018-03-06T11:41:54.577Z,25.87
2018-03-06T11:44:23.004Z,32.77
2018-03-06T11:46:50.569Z,33.17
2018-03-06T11:49:18.296Z,31.10
2018-03-06T11:51:45.913Z,31.50
2018-03-06T11:54:13.494Z,32.77
2018-03-06T11:56:41.169Z,34.23
2018-03-06T11:59:08.766Z,30.30
2018-03-06T12:01:36.681Z,30.27
2018-03-06T12:04:04.305Z,30.57
2018-03-06T12:06:31.894Z,28.70
2018-03-06T12:08:59.558Z,28.93
2018-03-06T12:11:27.192Z,33.23
2018-03-06T12:13:54.842Z,30.27
2018-03-06T12:16:22.429Z,26.97
2018-03-06T12:18:50.032Z,28.90
2018-03-06T12:21:17.674Z,30.10
2018-03-06T12:23:45.269Z,30.50
2018-03-06T12:26:12.942Z,30.53
2018-03-06T12:28:40.529Z,31.40
2018-03-06T12:31:08.138Z,34.20
2018-03-06T12:33:35.755Z,30.67
2018-03-06T12:36:03.354Z,35.23
2018-03-06T12:38:30.983Z,26.27
2018-03-06T12:40:58.818Z,33.47
2018-03-06T12:43:26.640Z,31.37
2018-03-06T12:45:54.239Z,28.60
2018-03-06T12:48:21.841Z,30.57
2018-03-06T12:50:49.528Z,28.03
2018-03-06T12:53:17.117Z,29.50
2018-03-06T12:55:44.718Z,30.23
2018-03-06T12:58:12.315Z,34.80
2018-03-06T13:00:40.474Z,31.40
2018-03-06T13:03:08.095Z,30.57
2018-03-06T13:05:36.026Z,30.07
2018-03-06T13:08:03.640Z,25.53
2018-03-06T13:10:34.409Z,30.70
2018-03-06T13:13:02.045Z,31.40
2018-03-06T13:15:29.716Z,30.00
2018-03-06T13:17:57.316Z,30.53
2018-03-06T13:20:24.909Z,32.90
2018-03-06T13:22:52.509Z,34.53
2018-03-06T13:25:20.077Z,30.27
2018-03-06T13:27:47.685Z,34.63
2018-03-06T13:30:15.273Z,33.00
2018-03-06T13:32:42.975Z,30.57
2018-03-06T13:35:10.613Z,28.53
2018-03-06T13:37:38.184Z,34.50
2018-03-06T13:40:05.806Z,31.27
2018-03-06T13:42:33.426Z,32.03
2018-03-06T13:45:00.989Z,28.97
2018-03-06T13:47:28.579Z,34.20
2018-03-06T13:49:56.217Z,28.53
2018-03-06T13:52:23.891Z,36.00
2018-03-06T13:54:51.516Z,33.67
2018-03-06T13:57:19.121Z,27.90
2018-03-06T13:59:46.733Z,31.77
2018-03-06T14:02:14.361Z,33.33
2018-03-06T14:04:41.986Z,34.23
2018-03-06T14:07:09.554Z,30.93
2018-03-06T14:09:37.155Z,33.40
2018-03-06T14:12:04.712Z,34.20
2018-03-06T14:14:32.457Z,34.23
2018-03-06T14:17:00.060Z,35.67
2018-03-06T14:19:27.682Z,38.53
2018-03-06T14:21:55.370Z,33.03
2018-03-06T14:24:22.970Z,27.53
2018-03-06T14:26:50.543Z,32.43
2018-03-06T14:29:18.168Z,33.07
2018-03-06T14:31:45.743Z,27.43
2018-03-06T14:34:13.423Z,28.17
2018-03-06T14:36:41.006Z,27.67
2018-03-06T14:39:08.598Z,28.70
2018-03-06T14:41:36.218Z,29.23
2018-03-06T14:44:03.825Z,28.23
2018-03-06T14:46:31.637Z,27.77
2018-03-06T14:48:59.256Z,28.67
2018-03-06T14:51:26.914Z,29.37
2018-03-06T14:53:54.547Z,33.47
2018-03-06T14:56:22.130Z,35.53
2018-03-06T14:58:49.759Z,28.43
2018-03-06T15:01:17.358Z,25.87
2018-03-06T15:03:45.107Z,25.83
2018-03-06T15:06:12.722Z,33.50
2018-03-06T15:08:40.322Z,32.90
2018-03-06T15:11:07.969Z,27.10
2018-03-06T15:13:35.680Z,30.00
2018-03-06T15:16:03.269Z,27.97
2018-03-06T15:18:30.850Z,28.60
2018-03-06T15:20:58.713Z,32.77
2018-03-06T15:23:26.543Z,28.77
2018-03-06T15:25:54.211Z,31.47
2018-03-06T15:28:21.856Z,35.30
2018-03-06T15:30:49.498Z,33.20
2018-03-06T15:33:17.254Z,31.47
2018-03-06T15:35:44.885Z,30.70
2018-03-06T15:38:12.523Z,32.73
2018-03-06T15:40:41.435Z,34.80
2018-03-06T15:43:10.533Z,25.80
2018-03-06T15:45:38.183Z,30.03
2018-03-06T15:48:06.047Z,29.77
2018-03-06T15:50:33.620Z,37.20
2018-03-06T15:53:01.256Z,28.40
2018-03-06T15:55:28.841Z,33.07
2018-03-06T15:57:57.847Z,29.40
2018-03-06T16:00:25.506Z,33.90
2018-03-06T16:02:53.165Z,27.63
2018-03-06T16:05:20.795Z,32.83
2018-03-06T16:07:48.691Z,28.80
2018-03-06T16:10:16.278Z,35.57
2018-03-06T16:12:43.888Z,34.70
2018-03-06T16:15:11.501Z,34.83
2018-03-06T16:17:39.090Z,31.77
2018-03-06T16:20:06.696Z,29.53
2018-03-06T16:22:34.347Z,27.90
2018-03-06T16:25:01.928Z,32.33
2018-03-06T16:27:29.530Z,27.20
2018-03-06T16:29:57.170Z,30.23
2018-03-06T16:32:24.742Z,28.87
2018-03-06T16:34:52.351Z,33.87
2018-03-06T16:37:19.997Z,36.00
2018-03-06T16:39:47.585Z,29.40
2018-03-06T16:42:15.210Z,33.77
2018-03-06T16:44:42.821Z,35.60
2018-03-06T16:47:10.433Z,41.37
2018-03-06T16:49:38.051Z,32.57
2018-03-06T16:52:06.439Z,30.87
2018-03-06T16:54:34.060Z,34.80
2018-03-06T16:57:01.631Z,33.63
2018-03-06T16:59:29.211Z,37.53
2018-03-06T17:01:56.836Z,34.93
2018-03-06T17:04:24.455Z,36.33
2018-03-06T17:06:52.092Z,34.50
2018-03-06T17:09:19.739Z,32.90
2018-03-06T17:11:47.489Z,31.97
2018-03-06T17:14:15.097Z,31.97
2018-03-06T17:16:42.759Z,28.63
2018-03-06T17:19:10.399Z,39.60
2018-03-06T17:21:37.961Z,28.00
2018-03-06T17:24:05.604Z,30.40
2018-03-06T17:26:33.171Z,35.03
2018-03-06T17:29:00.754Z,30.80
2018-03-06T17:31:28.435Z,34.60
2018-03-06T17:33:56.032Z,33.13
2018-03-06T17:36:23.629Z,31.90
2018-03-06T17:38:51.363Z,31.73
2018-03-06T17:41:19.320Z,30.77
2018-03-06T17:43:46.960Z,34.53
2018-03-06T17:46:14.580Z,35.10
2018-03-06T17:48:42.172Z,39.90
2018-03-06T17:51:09.738Z,36.67
2018-03-06T17:53:37.523Z,39.57
2018-03-06T17:56:05.090Z,41.03
2018-03-06T17:58:32.705Z,37.27
2018-03-06T18:01:00.345Z,35.93
2018-03-06T18:03:27.956Z,35.07
2018-03-06T18:05:55.536Z,40.33
2018-03-06T18:08:23.216Z,40.00
2018-03-06T18:10:50.824Z,39.50
2018-03-06T18:13:18.405Z,37.60
2018-03-06T18:15:46.053Z,42.50
2018-03-06T18:18:13.632Z,39.27
2018-03-06T18:20:41.313Z,53.00
2018-03-06T18:23:09.024Z,45.03
2018-03-06T18:25:36.623Z,41.47
2018-03-06T18:28:04.294Z,67.53
2018-03-06T18:30:31.988Z,64.83
2018-03-06T18:32:59.625Z,75.27
2018-03-06T18:35:27.856Z,63.23
2018-03-06T18:37:55.639Z,48.30
2018-03-06T18:40:23.666Z,37.13
2018-03-06T18:42:51.250Z,35.73
2018-03-06T18:45:18.853Z,38.73
2018-03-06T18:47:46.516Z,34.17
2018-03-06T18:50:22.885Z,33.30
2018-03-06T18:52:56.072Z,31.83
2018-03-06T18:55:23.691Z,36.33
2018-03-06T18:57:51.421Z,32.23
2018-03-06T19:03:48.870Z,39.00
2018-03-06T19:06:24.301Z,36.37
2018-03-06T19:08:52.053Z,38.00
2018-03-06T19:11:20.843Z,35.00
2018-03-06T19:13:48.734Z,34.77
2018-03-06T19:16:16.344Z,39.47
2018-03-06T19:18:49.209Z,35.87
2018-03-06T19:21:21.943Z,33.43
2018-03-06T19:23:50.281Z,36.43
2018-03-06T19:26:17.953Z,60.30
2018-03-06T19:28:45.541Z,45.83
2018-03-06T19:31:13.117Z,41.27
2018-03-06T19:33:40.762Z,33.57
2018-03-06T19:36:08.349Z,42.47
2018-03-06T19:38:35.905Z,40.87
2018-03-06T19:41:03.631Z,35.77
2018-03-06T19:43:31.230Z,41.70
2018-03-06T19:45:58.810Z,39.80
2018-03-06T19:48:26.475Z,41.90
2018-03-06T19:50:54.054Z,39.27
2018-03-06T19:53:21.651Z,48.80
2018-03-06T19:55:49.281Z,39.50
2018-03-06T19:58:16.898Z,39.37
2018-03-06T20:00:44.536Z,32.47
2018-03-06T20:03:12.149Z,44.47
2018-03-06T20:05:42.091Z,42.53
2018-03-06T20:08:09.723Z,38.70
2018-03-06T20:10:37.337Z,39.27
2018-03-06T20:13:04.909Z,38.40
2018-03-06T20:15:32.587Z,45.07
2018-03-06T20:18:00.453Z,46.10
2018-03-06T20:20:28.036Z,46.00
2018-03-06T20:22:55.633Z,46.87
2018-03-06T20:25:28.783Z,40.30
2018-03-06T20:27:56.418Z,39.20
2018-03-06T20:30:29.657Z,43.10
2018-03-06T20:33:02.892Z,45.73
2018-03-06T20:35:30.526Z,66.43
2018-03-06T20:37:58.099Z,46.43
2018-03-06T20:40:31.113Z,46.33
2018-03-06T20:42:58.731Z,40.67
2018-03-06T20:45:26.413Z,40.30
2018-03-06T20:47:54.013Z,40.47
2018-03-06T20:50:21.585Z,41.83
2018-03-06T20:52:51.841Z,40.13
2018-03-06T20:55:19.394Z,40.70
2018-03-06T20:57:47.309Z,42.73
2018-03-06T21:00:14.970Z,45.60
2018-03-06T21:02:42.838Z,45.40
2018-03-06T21:05:10.473Z,45.80
2018-03-06T21:07:38.130Z,44.33
2018-03-06T21:10:05.715Z,41.30
2018-03-06T21:12:33.565Z,42.80
2018-03-06T21:15:01.444Z,45.17
2018-03-06T21:17:29.038Z,35.53
2018-03-06T21:19:56.590Z,51.50
2018-03-06T21:22:24.317Z,43.53
2018-03-06T21:24:51.883Z,40.40
2018-03-06T21:27:19.871Z,38.97
2018-03-06T21:29:47.456Z,45.67
2018-03-06T21:32:15.042Z,45.07
2018-03-06T21:34:42.665Z,39.67
2018-03-06T21:37:10.222Z,44.57
2018-03-06T21:39:37.785Z,43.27
2018-03-06T21:42:05.394Z,41.67
2018-03-06T21:44:32.954Z,44.10
2018-03-06T21:47:00.559Z,40.10
2018-03-06T21:49:28.225Z,46.53
2018-03-06T21:51:55.816Z,46.57
2018-03-06T21:54:23.931Z,51.70
2018-03-06T21:56:52.195Z,42.90
2018-03-06T21:59:20.247Z,40.83
2018-03-06T22:01:47.824Z,48.37
2018-03-06T22:04:15.442Z,41.23
2018-03-06T22:06:43.097Z,39.93
2018-03-06T22:09:10.962Z,46.00
2018-03-06T22:11:38.513Z,42.03
2018-03-06T22:14:06.106Z,41.27
2018-03-06T22:16:33.726Z,44.23
2018-03-06T22:19:01.333Z,47.77
2018-03-06T22:21:29.199Z,45.10
2018-03-06T22:23:56.827Z,49.67
2018-03-06T22:26:24.385Z,46.00
2018-03-06T22:28:52.117Z,45.03
2018-03-06T22:31:19.699Z,53.93
2018-03-06T22:33:47.354Z,48.73
2018-03-06T22:36:15.008Z,48.43
2018-03-06T22:38:42.589Z,51.50
2018-03-06T22:41:10.165Z,51.23
2018-03-06T22:43:37.835Z,45.33
2018-03-06T22:46:05.472Z,47.90
2018-03-06T22:48:33.116Z,45.77
2018-03-06T22:51:00.833Z,54.40
2018-03-06T22:53:28.415Z,50.57
2018-03-06T22:55:56.017Z,52.50
2018-03-06T22:58:23.820Z,47.80
2018-03-06T23:00:51.400Z,50.53
2018-03-06T23:03:19.008Z,60.67
2018-03-06T23:05:54.872Z,62.07
2018-03-06T23:08:22.507Z,50.93
2018-03-06T23:10:50.152Z,49.47
2018-03-06T23:13:17.034Z,53.93
2018-03-06T23:15:44.674Z,58.03
2018-03-06T23:18:12.307Z,53.47
2018-03-06T23:20:39.885Z,53.27
2018-03-06T23:23:07.537Z,43.33
2018-03-06T23:25:35.149Z,50.60
2018-03-06T23:28:03.110Z,46.03
2018-03-06T23:30:30.750Z,46.30
2018-03-06T23:32:58.338Z,49.83
2018-03-06T23:35:25.998Z,46.37
2018-03-06T23:37:53.870Z,51.40
2018-03-06T23:40:21.448Z,43.13
2018-03-06T23:42:49.045Z,44.23
2018-03-06T23:45:16.767Z,53.67
2018-03-06T23:47:44.615Z,43.97
2018-03-06T23:50:12.223Z,47.87
2018-03-06T23:52:39.841Z,60.47
2018-03-06T23:55:14.191Z,52.93
2018-03-06T23:57:41.791Z,55.33
